createdAt,value
2022-11-09T00:01:03.954Z,100.00
2022-11-09T00:03:31.104Z,100.00
2022-11-09T00:05:59.464Z,100.00
2022-11-09T00:08:26.670Z,100.00
2022-11-09T00:10:53.825Z,100.00
2022-11-09T00:13:21.505Z,100.00
2022-11-09T00:15:48.764Z,100.00
2022-11-09T00:18:15.840Z,100.00
2022-11-09T00:20:47.610Z,100.00
2022-11-09T00:23:16.638Z,100.00
2022-11-09T00:25:44.131Z,100.00
2022-11-09T00:28:11.067Z,100.00
2022-11-09T00:30:38.101Z,100.00
2022-11-09T00:33:05.287Z,100.00
2022-11-09T00:35:32.690Z,100.00
2022-11-09T00:37:59.648Z,100.00
2022-11-09T00:40:26.671Z,100.00
2022-11-09T00:42:53.784Z,100.00
2022-11-09T00:45:20.687Z,100.00
2022-11-09T00:47:47.584Z,100.00
2022-11-09T00:50:14.639Z,100.00
2022-11-09T00:52:41.481Z,100.00
2022-11-09T00:55:08.827Z,100.00
2022-11-09T00:57:35.846Z,100.00
2022-11-09T01:00:02.857Z,100.00
2022-11-09T01:02:30.694Z,100.00
2022-11-09T01:04:58.182Z,100.00
2022-11-09T01:07:26.042Z,100.00
2022-11-09T01:09:52.931Z,100.00
2022-11-09T01:12:19.981Z,100.00
2022-11-09T01:14:47.128Z,100.00
2022-11-09T01:17:14.178Z,100.00
2022-11-09T01:19:41.171Z,100.00
2022-11-09T01:22:08.481Z,100.00
2022-11-09T01:24:35.681Z,100.00
2022-11-09T01:27:02.625Z,100.00
2022-11-09T01:29:30.651Z,100.00
2022-11-09T01:31:57.736Z,100.00
2022-11-09T01:34:25.124Z,100.00
2022-11-09T01:36:53.508Z,100.00
2022-11-09T01:39:21.900Z,100.00
2022-11-09T01:41:49.210Z,100.00
2022-11-09T01:44:18.832Z,100.00
2022-11-09T01:46:51.627Z,100.00
2022-11-09T01:49:30.569Z,100.00
2022-11-09T01:52:04.565Z,100.00
2022-11-09T01:54:37.512Z,100.00
2022-11-09T01:57:09.287Z,100.00
2022-11-09T01:59:42.308Z,100.00
2022-11-09T02:02:09.699Z,100.00
2022-11-09T02:04:47.674Z,100.00
2022-11-09T02:07:15.034Z,100.00
2022-11-09T02:10:03.288Z,100.00
2022-11-09T02:12:33.537Z,100.00
2022-11-09T02:15:03.663Z,100.00
2022-11-09T02:17:32.693Z,100.00
2022-11-09T02:20:00.323Z,100.00
2022-11-09T02:22:28.712Z,100.00
2022-11-09T02:24:56.601Z,100.00
2022-11-09T02:27:24.626Z,100.00
2022-11-09T02:29:53.366Z,100.00
2022-11-09T02:32:22.989Z,100.00
2022-11-09T02:34:51.531Z,100.00
2022-11-09T02:37:36.028Z,100.00
2022-11-09T02:40:08.026Z,100.00
2022-11-09T02:42:35.421Z,100.00
2022-11-09T02:45:02.397Z,100.00
2022-11-09T02:47:29.816Z,100.00
2022-11-09T02:49:58.075Z,100.00
2022-11-09T02:52:26.984Z,100.00
2022-11-09T02:54:54.622Z,100.00
2022-11-09T02:57:21.589Z,100.00
2022-11-09T02:59:49.842Z,100.00
2022-11-09T03:02:17.124Z,100.00
2022-11-09T03:04:44.022Z,100.00
2022-11-09T03:07:12.059Z,100.00
2022-11-09T03:09:39.760Z,100.00
2022-11-09T03:12:25.897Z,100.00
2022-11-09T03:14:53.331Z,100.00
2022-11-09T03:17:20.351Z,100.00
2022-11-09T03:19:47.253Z,100.00
2022-11-09T03:22:14.243Z,100.00
2022-11-09T03:24:45.190Z,100.00
2022-11-09T03:27:12.916Z,100.00
2022-11-09T03:29:40.061Z,100.00
2022-11-09T03:32:07.706Z,100.00
2022-11-09T03:34:35.565Z,100.00
2022-11-09T03:37:02.599Z,100.00
2022-11-09T03:39:29.996Z,100.00
2022-11-09T03:41:56.964Z,100.00
2022-11-09T03:44:25.660Z,100.00
2022-11-09T03:46:52.659Z,100.00
2022-11-09T03:49:19.784Z,100.00
2022-11-09T03:51:46.598Z,100.00
2022-11-09T03:54:13.512Z,100.00
2022-11-09T03:56:41.322Z,100.00
2022-11-09T03:59:08.344Z,100.00
2022-11-09T04:01:35.344Z,100.00
2022-11-09T04:04:02.424Z,100.00
2022-11-09T04:06:29.575Z,100.00
2022-11-09T04:08:56.576Z,100.00
2022-11-09T04:11:24.341Z,100.00
2022-11-09T04:13:51.321Z,100.00
2022-11-09T04:16:18.428Z,100.00
2022-11-09T04:18:45.443Z,100.00
2022-11-09T04:21:12.455Z,100.00
2022-11-09T04:23:39.561Z,100.00
2022-11-09T04:26:06.559Z,100.00
2022-11-09T04:28:33.712Z,100.00
2022-11-09T04:31:02.217Z,100.00
2022-11-09T04:33:29.538Z,100.00
2022-11-09T04:36:02.533Z,100.00
2022-11-09T04:38:29.547Z,100.00
2022-11-09T04:41:01.288Z,100.00
2022-11-09T04:43:29.120Z,100.00
2022-11-09T04:46:00.035Z,100.00
2022-11-09T04:48:27.155Z,100.00
2022-11-09T04:51:00.496Z,100.00
2022-11-09T04:53:28.179Z,100.00
2022-11-09T04:55:55.416Z,100.00
2022-11-09T04:58:25.068Z,100.00
2022-11-09T05:00:54.250Z,100.00
2022-11-09T05:03:22.111Z,100.00
2022-11-09T05:05:49.474Z,100.00
2022-11-09T05:08:16.823Z,100.00
2022-11-09T05:10:43.776Z,100.00
2022-11-09T05:13:13.610Z,100.00
2022-11-09T05:15:41.487Z,100.00
2022-11-09T05:18:10.518Z,100.00
2022-11-09T05:20:37.615Z,100.00
2022-11-09T05:23:23.910Z,100.00
2022-11-09T05:25:51.475Z,100.00
2022-11-09T05:28:18.598Z,100.00
2022-11-09T05:30:45.872Z,100.00
2022-11-09T05:33:13.031Z,100.00
2022-11-09T05:35:40.133Z,100.00
2022-11-09T05:38:07.386Z,100.00
2022-11-09T05:40:35.025Z,100.00
2022-11-09T05:43:02.091Z,100.00
2022-11-09T05:45:42.487Z,100.00
2022-11-09T05:48:11.374Z,100.00
2022-11-09T05:50:39.378Z,100.00
2022-11-09T05:53:27.047Z,100.00
2022-11-09T05:55:54.277Z,100.00
2022-11-09T05:58:21.432Z,100.00
2022-11-09T06:00:48.495Z,100.00
2022-11-09T06:03:15.636Z,100.00
2022-11-09T06:05:42.658Z,100.00
2022-11-09T06:08:15.884Z,100.00
2022-11-09T06:10:43.728Z,100.00
2022-11-09T06:13:11.040Z,100.00
2022-11-09T06:15:38.067Z,100.00
2022-11-09T06:18:05.053Z,100.00
2022-11-09T06:20:33.422Z,100.00
2022-11-09T06:23:03.978Z,100.00
2022-11-09T06:25:33.271Z,100.00
2022-11-09T06:28:01.095Z,100.00
2022-11-09T06:30:28.559Z,100.00
2022-11-09T06:33:00.274Z,100.00
2022-11-09T06:35:27.534Z,100.00
2022-11-09T06:37:56.817Z,100.00
2022-11-09T06:40:24.091Z,100.00
2022-11-09T06:42:51.400Z,100.00
2022-11-09T06:45:18.562Z,100.00
2022-11-09T06:47:45.499Z,100.00
2022-11-09T06:50:12.646Z,100.00
2022-11-09T06:52:39.633Z,100.00
2022-11-09T06:55:08.552Z,100.00
2022-11-09T06:57:35.530Z,100.00
2022-11-09T07:00:03.155Z,100.00
2022-11-09T07:02:30.692Z,100.00
2022-11-09T07:04:57.883Z,100.00
2022-11-09T07:07:27.919Z,100.00
2022-11-09T07:09:55.998Z,100.00
2022-11-09T07:12:23.241Z,100.00
2022-11-09T07:14:50.305Z,99.60
2022-11-09T07:17:17.849Z,97.56
2022-11-09T07:19:44.799Z,95.74
2022-11-09T07:22:11.756Z,94.31
2022-11-09T07:24:38.816Z,93.85
2022-11-09T07:27:06.009Z,95.62
2022-11-09T07:29:33.186Z,95.81
2022-11-09T07:32:00.586Z,95.25
2022-11-09T07:34:27.959Z,87.21
2022-11-09T07:36:54.944Z,91.76
2022-11-09T07:39:22.099Z,78.60
2022-11-09T07:41:49.365Z,81.22
2022-11-09T07:44:18.937Z,82.03
2022-11-09T07:46:50.383Z,86.91
2022-11-09T07:49:18.376Z,83.45
2022-11-09T07:51:45.441Z,84.51
2022-11-09T07:54:12.665Z,78.52
2022-11-09T07:56:39.684Z,78.18
2022-11-09T07:59:06.851Z,87.54
2022-11-09T08:01:34.416Z,86.47
2022-11-09T08:04:01.561Z,84.96
2022-11-09T08:06:28.934Z,86.59
2022-11-09T08:08:55.935Z,83.94
2022-11-09T08:11:23.024Z,71.38
2022-11-09T08:13:51.073Z,70.39
2022-11-09T08:16:18.261Z,71.17
2022-11-09T08:18:45.505Z,68.51
2022-11-09T08:21:12.753Z,70.35
2022-11-09T08:23:39.988Z,67.56
2022-11-09T08:26:07.488Z,70.04
2022-11-09T08:28:35.192Z,65.50
2022-11-09T08:31:04.815Z,61.56
2022-11-09T08:33:36.379Z,61.04
2022-11-09T08:36:10.165Z,62.26
2022-11-09T08:38:37.086Z,60.14
2022-11-09T08:41:05.477Z,58.68
2022-11-09T08:43:35.637Z,58.18
2022-11-09T08:46:02.688Z,58.11
2022-11-09T08:48:29.670Z,57.27
2022-11-09T08:50:59.802Z,55.72
2022-11-09T08:53:28.695Z,54.09
2022-11-09T08:55:56.495Z,53.43
2022-11-09T08:58:23.826Z,53.49
2022-11-09T09:00:50.991Z,53.92
2022-11-09T09:03:18.299Z,54.43
2022-11-09T09:05:45.332Z,53.97
2022-11-09T09:08:15.475Z,52.49
2022-11-09T09:10:43.079Z,52.52
2022-11-09T09:13:10.518Z,52.77
2022-11-09T09:15:37.572Z,52.44
2022-11-09T09:18:05.208Z,53.05
2022-11-09T09:20:33.088Z,53.54
2022-11-09T09:23:00.934Z,52.45
2022-11-09T09:25:28.544Z,51.75
2022-11-09T09:27:56.000Z,51.32
2022-11-09T09:30:23.293Z,50.99
2022-11-09T09:32:50.232Z,51.99
2022-11-09T09:35:17.783Z,51.05
2022-11-09T09:37:44.926Z,49.97
2022-11-09T09:40:26.359Z,50.64
2022-11-09T09:42:55.080Z,51.28
2022-11-09T09:45:26.232Z,51.47
2022-11-09T09:48:00.650Z,51.54
2022-11-09T09:50:38.381Z,52.10
2022-11-09T09:53:24.168Z,52.13
2022-11-09T09:56:11.257Z,50.97
2022-11-09T09:58:46.171Z,50.80
2022-11-09T10:01:22.910Z,50.23
2022-11-09T10:03:50.973Z,50.48
2022-11-09T10:06:48.715Z,48.94
2022-11-09T10:09:46.093Z,49.07
2022-11-09T10:12:18.907Z,48.11
2022-11-09T10:15:09.213Z,48.49
2022-11-09T10:17:54.963Z,48.32
2022-11-09T10:20:42.912Z,47.24
2022-11-09T10:23:26.674Z,46.53
2022-11-09T10:26:19.061Z,47.40
2022-11-09T10:29:15.033Z,47.75
2022-11-09T10:31:41.433Z,46.67
2022-11-09T10:34:22.871Z,47.01
2022-11-09T10:37:10.792Z,46.57
2022-11-09T10:39:46.972Z,46.19
2022-11-09T10:42:32.442Z,46.56
2022-11-09T10:45:29.092Z,47.45
2022-11-09T10:48:14.834Z,45.84
2022-11-09T10:51:00.858Z,44.90
2022-11-09T10:53:46.493Z,45.12
2022-11-09T10:57:05.606Z,44.87
2022-11-09T10:59:55.125Z,44.98
2022-11-09T11:02:44.397Z,44.55
2022-11-09T11:05:31.614Z,44.02
2022-11-09T11:08:40.389Z,44.54
2022-11-09T11:11:35.043Z,44.24
2022-11-09T11:14:33.984Z,45.56
2022-11-09T11:17:27.712Z,45.08
2022-11-09T11:20:30.352Z,44.41
2022-11-09T11:23:20.079Z,45.00
2022-11-09T11:26:31.760Z,43.12
2022-11-09T11:29:25.797Z,43.70
2022-11-09T11:32:17.760Z,43.62
2022-11-09T11:35:14.301Z,43.36
2022-11-09T11:38:32.832Z,43.55
2022-11-09T11:41:49.439Z,44.62
2022-11-09T11:45:12.531Z,45.68
2022-11-09T11:48:21.748Z,45.61
2022-11-09T11:51:31.914Z,46.06
2022-11-09T11:54:22.988Z,46.87
2022-11-09T11:57:20.505Z,49.01
2022-11-09T12:00:18.736Z,50.40
2022-11-09T12:03:15.911Z,52.11
2022-11-09T12:06:04.881Z,53.93
2022-11-09T12:09:24.421Z,55.35
2022-11-09T12:12:28.399Z,57.12
2022-11-09T12:15:23.799Z,58.57
2022-11-09T12:18:38.478Z,60.31
2022-11-09T12:21:32.850Z,60.79
2022-11-09T12:24:57.134Z,61.70
2022-11-09T12:28:00.774Z,62.87
2022-11-09T12:30:58.745Z,63.21
2022-11-09T12:34:01.581Z,63.89
2022-11-09T12:36:59.566Z,64.73
2022-11-09T12:39:53.115Z,65.53
2022-11-09T12:42:48.481Z,65.75
2022-11-09T12:45:39.272Z,66.33
2022-11-09T12:48:29.408Z,66.38
2022-11-09T12:51:16.097Z,67.88
2022-11-09T12:54:10.288Z,67.76
2022-11-09T12:56:59.846Z,67.70
2022-11-09T12:59:51.403Z,67.71
2022-11-09T13:02:55.394Z,68.75
2022-11-09T13:05:43.245Z,69.43
2022-11-09T13:08:31.212Z,69.55
2022-11-09T13:11:17.113Z,69.78
2022-11-09T13:14:30.345Z,70.77
2022-11-09T13:17:25.114Z,70.90
2022-11-09T13:26:47.383Z,72.93
2022-11-09T13:29:41.923Z,73.16
2022-11-09T13:32:35.289Z,73.14
2022-11-09T13:35:46.549Z,73.61
2022-11-09T13:38:33.918Z,74.17
2022-11-09T13:41:34.382Z,74.78
2022-11-09T13:44:32.631Z,75.52
2022-11-09T13:47:32.593Z,75.64
2022-11-09T13:50:25.031Z,75.56
2022-11-09T13:53:39.280Z,76.77
2022-11-09T13:56:30.618Z,77.62
2022-11-09T13:59:24.107Z,77.64
2022-11-09T14:02:24.163Z,78.31
2022-11-09T14:05:39.625Z,78.46
2022-11-09T14:08:29.112Z,77.77
2022-11-09T18:06:55.372Z,100.00
2022-11-09T18:09:42.060Z,100.00
2022-11-09T18:12:28.476Z,100.00
2022-11-09T18:15:14.270Z,100.00
2022-11-09T18:18:00.146Z,100.00
2022-11-09T18:20:46.197Z,100.00
2022-11-09T18:23:32.268Z,100.00
2022-11-09T18:26:18.131Z,100.00
2022-11-09T18:29:04.319Z,100.00
2022-11-09T18:31:50.254Z,100.00
2022-11-09T18:34:36.041Z,100.00
2022-11-09T18:37:22.063Z,100.00
2022-11-09T18:40:08.699Z,100.00
2022-11-09T18:42:54.768Z,100.00
2022-11-09T18:45:40.795Z,100.00
2022-11-09T18:48:27.282Z,100.00
2022-11-09T18:51:13.552Z,100.00
2022-11-09T18:53:59.741Z,100.00
2022-11-09T18:56:46.495Z,100.00
2022-11-09T18:59:32.576Z,100.00
2022-11-09T19:02:18.744Z,100.00
2022-11-09T19:05:06.958Z,100.00
2022-11-09T19:07:52.571Z,100.00
2022-11-09T19:10:38.701Z,100.00
2022-11-09T19:13:24.707Z,100.00
2022-11-09T19:16:12.703Z,100.00
2022-11-09T19:18:58.675Z,100.00
2022-11-09T19:21:52.492Z,100.00
2022-11-09T19:24:38.382Z,100.00
2022-11-09T19:27:25.297Z,100.00
2022-11-09T19:30:11.449Z,100.00
2022-11-09T19:32:57.140Z,100.00
2022-11-09T19:35:42.969Z,100.00
2022-11-09T19:38:28.907Z,100.00
2022-11-09T19:41:15.297Z,100.00
2022-11-09T19:44:01.505Z,100.00
2022-11-09T19:46:47.078Z,100.00
2022-11-09T19:49:32.868Z,100.00
2022-11-09T19:52:18.811Z,100.00
2022-11-09T19:55:05.803Z,100.00
2022-11-09T19:57:51.647Z,100.00
2022-11-09T20:00:37.694Z,100.00
2022-11-09T20:03:23.528Z,100.00
2022-11-09T20:06:09.972Z,100.00
2022-11-09T20:08:56.165Z,100.00
2022-11-09T20:12:00.794Z,100.00
2022-11-09T20:14:46.618Z,100.00
2022-11-09T20:17:32.452Z,100.00
2022-11-09T20:20:18.366Z,100.00
2022-11-09T20:23:04.158Z,100.00
2022-11-09T20:25:49.705Z,100.00
2022-11-09T20:28:35.767Z,100.00
2022-11-09T20:31:22.534Z,100.00
2022-11-09T20:34:08.373Z,100.00
2022-11-09T20:36:54.218Z,100.00
2022-11-09T20:39:41.138Z,100.00
2022-11-09T20:42:26.843Z,100.00
2022-11-09T20:45:12.483Z,100.00
2022-11-09T20:48:10.567Z,100.00
2022-11-09T20:51:09.100Z,100.00
2022-11-09T20:53:54.778Z,100.00
2022-11-09T20:56:40.776Z,100.00
2022-11-09T20:59:26.332Z,100.00
2022-11-09T21:02:18.147Z,100.00
2022-11-09T21:05:04.462Z,100.00
2022-11-09T21:07:51.101Z,100.00
2022-11-09T21:10:37.023Z,100.00
2022-11-09T21:13:23.345Z,100.00
2022-11-09T21:16:12.609Z,100.00
2022-11-09T21:18:58.478Z,100.00
2022-11-09T21:21:44.597Z,100.00
2022-11-09T21:24:49.576Z,100.00
2022-11-09T21:27:54.287Z,100.00
2022-11-09T21:30:40.076Z,100.00
2022-11-09T21:33:25.962Z,100.00
2022-11-09T21:36:13.900Z,100.00
2022-11-09T21:39:01.351Z,100.00
2022-11-09T21:41:47.310Z,100.00
2022-11-09T21:44:34.758Z,100.00
2022-11-09T21:47:20.209Z,100.00
2022-11-09T21:50:12.122Z,100.00
2022-11-09T21:52:58.184Z,100.00
2022-11-09T21:55:43.777Z,100.00
2022-11-09T21:58:29.634Z,100.00
2022-11-09T22:01:18.477Z,100.00
2022-11-09T22:04:05.006Z,100.00
2022-11-09T22:06:50.714Z,100.00
2022-11-09T22:10:06.064Z,100.00
2022-11-09T22:13:00.725Z,100.00
2022-11-09T22:16:05.200Z,100.00
2022-11-09T22:19:09.686Z,100.00
2022-11-09T22:21:55.323Z,100.00
2022-11-09T22:24:41.162Z,100.00
2022-11-09T22:27:26.677Z,100.00
2022-11-09T22:30:12.783Z,100.00
2022-11-09T22:32:59.151Z,100.00
2022-11-09T22:35:44.787Z,100.00
2022-11-09T22:38:34.022Z,100.00
2022-11-09T22:41:20.182Z,100.00
2022-11-09T22:44:05.812Z,100.00
2022-11-09T22:46:51.506Z,100.00
2022-11-09T22:49:37.474Z,100.00
2022-11-09T22:52:22.942Z,100.00
2022-11-09T22:55:09.050Z,100.00
2022-11-09T22:57:56.036Z,100.00
2022-11-09T23:00:42.132Z,100.00
2022-11-09T23:03:27.783Z,100.00
2022-11-09T23:06:19.603Z,100.00
2022-11-09T23:09:05.727Z,100.00
2022-11-09T23:11:51.608Z,100.00
2022-11-09T23:14:56.506Z,100.00
2022-11-09T23:18:01.138Z,100.00
2022-11-09T23:20:48.345Z,100.00
2022-11-09T23:23:34.192Z,100.00
2022-11-09T23:26:21.041Z,100.00
2022-11-09T23:29:06.690Z,100.00
2022-11-09T23:31:52.189Z,100.00
2022-11-09T23:34:37.714Z,100.00
2022-11-09T23:37:23.345Z,100.00
2022-11-09T23:40:09.720Z,100.00
2022-11-09T23:43:03.632Z,100.00
2022-11-09T23:45:49.507Z,100.00
2022-11-09T23:48:35.032Z,100.00
2022-11-09T23:51:20.593Z,100.00
2022-11-09T23:54:06.623Z,100.00
2022-11-09T23:56:58.545Z,100.00
2022-11-09T23:59:44.504Z,100.00
